Time;durP1;ratioP1;P1;durP2;ratioP2;P2;SDS_P1;SDS_P2;PMS_P1;PMS_P2;Temp;Humidity;BMP_temperature;BMP_pressure;BME280_temperature;BME280_humidity;BME280_pressure;Samples;Min_cycle;Max_cycle;Signal;HPM_P1;HPM_P2
2021/12/13 00:02:39;;;;;;;41.83;16.13;;;9.80;99.90;;;;;;5056662;28;20396;-47
2021/12/13 00:05:30;;;;;;;53.60;16.50;;;9.80;99.90;;;;;;5053780;28;20048;-47
2021/12/13 00:08:05;;;;;;;68.20;17.08;;;9.80;99.90;;;;;;5060152;28;20048;-46
2021/12/13 00:10:41;;;;;;;56.33;16.48;;;9.80;99.90;;;;;;5031444;28;20060;-46
2021/12/13 00:13:18;;;;;;;55.85;16.13;;;9.80;99.90;;;;;;5049427;28;20053;-48
2021/12/13 00:15:53;;;;;;;41.08;15.43;;;9.80;99.90;;;;;;5046804;28;20052;-46
2021/12/13 00:18:25;;;;;;;41.63;14.38;;;9.80;99.90;;;;;;5048704;28;20044;-48
2021/12/13 00:20:58;;;;;;;32.45;12.68;;;9.80;99.90;;;;;;5050780;28;20203;-47
2021/12/13 00:23:31;;;;;;;37.85;13.95;;;9.80;99.90;;;;;;5065941;28;20044;-46
2021/12/13 00:26:00;;;;;;;30.63;13.27;;;9.80;99.90;;;;;;5054368;28;20062;-46
2021/12/13 00:28:32;;;;;;;34.28;12.23;;;9.70;99.90;;;;;;5048926;28;20399;-46
2021/12/13 00:31:24;;;;;;;33.30;12.70;;;9.80;99.90;;;;;;5048314;28;20041;-48
2021/12/13 00:34:23;;;;;;;38.55;12.88;;;9.80;99.90;;;;;;5084162;28;20036;-47
2021/12/13 00:36:58;;;;;;;37.83;12.63;;;9.80;99.90;;;;;;5047138;28;20061;-48
2021/12/13 00:39:26;;;;;;;39.40;14.27;;;9.70;99.90;;;;;;5046797;28;20041;-48
2021/12/13 00:41:54;;;;;;;37.63;14.18;;;9.80;99.90;;;;;;5059813;28;20040;-46
2021/12/13 00:44:39;;;;;;;38.05;13.85;;;9.80;99.90;;;;;;5059463;28;20406;-47
2021/12/13 00:47:13;;;;;;;33.75;13.88;;;9.80;99.90;;;;;;5048241;28;20482;-46
2021/12/13 00:49:44;;;;;;;35.28;13.57;;;9.80;99.90;;;;;;5046612;28;20111;-47
2021/12/13 00:52:17;;;;;;;45.58;15.10;;;9.80;99.90;;;;;;5046375;28;20052;-46
2021/12/13 00:54:45;;;;;;;39.63;14.80;;;9.80;99.90;;;;;;5048128;28;20463;-46
2021/12/13 00:57:31;;;;;;;;;;;9.80;99.90;;;;;;5048555;28;20071;-46
2021/12/13 01:00:06;;;;;;;45.25;14.90;;;9.70;99.90;;;;;;5045484;28;19963;-46
2021/12/13 01:02:42;;;;;;;35.70;13.93;;;9.70;99.90;;;;;;5058136;28;20054;-47
2021/12/13 01:05:12;;;;;;;35.33;15.07;;;9.70;99.90;;;;;;5049172;28;20056;-46
2021/12/13 01:08:03;;;;;;;44.80;16.00;;;9.70;99.90;;;;;;5080240;28;20435;-48
2021/12/13 01:10:53;;;;;;;49.83;16.48;;;9.70;99.90;;;;;;5047548;28;20389;-46
2021/12/13 01:13:29;;;;;;;47.28;16.27;;;9.80;99.90;;;;;;5048202;28;20052;-47
2021/12/13 01:16:10;;;;;;;50.90;15.77;;;9.70;99.90;;;;;;5052769;28;20513;-47
2021/12/13 01:21:37;;;;;;;47.60;16.70;;;9.80;99.90;;;;;;5047696;28;20053;-46
2021/12/13 01:24:12;;;;;;;49.63;17.08;;;9.80;99.90;;;;;;5060586;28;20037;-46
2021/12/13 01:26:46;;;;;;;42.45;16.67;;;9.70;99.90;;;;;;5061099;28;20031;-46
2021/12/13 01:29:17;;;;;;;46.45;16.02;;;9.70;99.90;;;;;;5071894;28;20501;-46
2021/12/13 01:32:18;;;;;;;56.13;17.88;;;9.80;99.90;;;;;;5054908;28;20091;-46
2021/12/13 01:34:46;;;;;;;60.72;18.02;;;9.80;99.90;;;;;;5048712;28;20279;-46
2021/12/13 01:37:16;;;;;;;50.22;17.30;;;9.80;99.90;;;;;;5046421;28;20041;-47
2021/12/13 01:39:51;;;;;;;44.95;17.33;;;9.70;99.90;;;;;;5062324;28;20102;-45
2021/12/13 01:42:29;;;;;;;49.95;17.35;;;9.80;99.90;;;;;;5060370;28;20041;-48
2021/12/13 01:45:00;;;;;;;39.75;14.50;;;9.70;99.90;;;;;;5046514;28;20084;-46
2021/12/13 01:47:31;;;;;;;54.05;15.90;;;9.80;99.90;;;;;;5061006;28;20045;-46
2021/12/13 01:50:14;;;;;;;39.92;14.75;;;9.80;99.90;;;;;;5046091;28;20052;-46
2021/12/13 01:52:41;;;;;;;38.80;14.48;;;9.80;99.90;;;;;;5046162;28;20584;-47
2021/12/13 01:55:36;;;;;;;40.10;14.63;;;9.80;99.90;;;;;;5079516;28;20503;-46
2021/12/13 01:58:35;;;;;;;43.53;13.75;;;9.80;99.90;;;;;;5045413;28;20346;-47
2021/12/13 02:01:18;;;;;;;37.42;13.10;;;9.80;99.90;;;;;;5079591;28;20152;-47
2021/12/13 02:03:55;;;;;;;41.13;14.15;;;9.80;99.90;;;;;;5056549;28;20117;-46
2021/12/13 02:06:28;;;;;;;37.58;14.00;;;9.80;99.90;;;;;;5064272;28;20484;-46
2021/12/13 02:08:57;;;;;;;36.22;13.15;;;9.80;99.90;;;;;;5046299;28;20471;-47
2021/12/13 02:11:32;;;;;;;40.88;14.13;;;9.80;99.90;;;;;;5029553;28;20214;-45
2021/12/13 02:14:14;;;;;;;45.35;15.13;;;9.80;99.90;;;;;;5047516;28;20090;-47
2021/12/13 02:17:11;;;;;;;34.28;13.05;;;9.80;99.90;;;;;;5059136;28;20509;-47
2021/12/13 02:19:42;;;;;;;39.20;13.57;;;9.80;99.90;;;;;;5029591;28;20375;-48
2021/12/13 02:22:30;;;;;;;35.88;13.85;;;9.80;99.90;;;;;;5055998;28;20076;-45
2021/12/13 02:25:00;;;;;;;33.47;14.63;;;9.80;99.90;;;;;;5081002;28;20063;-47
2021/12/13 02:27:31;;;;;;;37.67;14.82;;;9.80;99.90;;;;;;5059382;28;20080;-46
2021/12/13 02:30:00;;;;;;;46.80;15.00;;;9.80;99.90;;;;;;5033504;28;20040;-46
2021/12/13 02:32:28;;;;;;;49.67;15.88;;;9.80;99.90;;;;;;5050866;28;20448;-46
2021/12/13 02:34:58;;;;;;;41.75;15.85;;;9.80;99.90;;;;;;5082619;28;20128;-45
2021/12/13 02:37:26;;;;;;;37.42;15.27;;;9.80;99.90;;;;;;5048918;28;20047;-47
2021/12/13 02:39:58;;;;;;;40.75;16.10;;;9.80;99.90;;;;;;5046770;28;20044;-45
2021/12/13 02:42:28;;;;;;;42.55;16.13;;;9.80;99.90;;;;;;5062798;28;20037;-48
2021/12/13 02:45:12;;;;;;;41.35;17.20;;;9.80;99.90;;;;;;5058815;28;20471;-46
2021/12/13 02:47:46;;;;;;;43.70;16.38;;;9.80;99.90;;;;;;5036712;28;20041;-46
2021/12/13 02:50:17;;;;;;;44.97;16.90;;;9.80;99.90;;;;;;5032328;28;20424;-48
2021/12/13 02:52:43;;;;;;;46.95;17.63;;;9.80;99.90;;;;;;5069641;28;20402;-46
2021/12/13 02:55:18;;;;;;;43.88;16.98;;;9.80;99.90;;;;;;5052174;28;20051;-45
2021/12/13 02:57:48;;;;;;;45.92;17.63;;;9.80;99.90;;;;;;5061790;28;20033;-45
2021/12/13 03:00:38;;;;;;;42.85;17.63;;;9.80;99.90;;;;;;5049866;28;20099;-46
2021/12/13 03:03:10;;;;;;;39.25;17.05;;;9.80;99.90;;;;;;5048833;28;20045;-46
2021/12/13 03:05:40;;;;;;;49.35;19.17;;;9.80;99.90;;;;;;5053962;28;20028;-46
2021/12/13 03:08:15;;;;;;;47.67;17.55;;;9.80;99.90;;;;;;5064393;28;20058;-49
2021/12/13 03:10:49;;;;;;;52.72;17.02;;;9.80;99.90;;;;;;5062455;28;20041;-46
2021/12/13 03:13:18;;;;;;;44.88;17.70;;;9.80;99.90;;;;;;5050029;28;20480;-45
2021/12/13 03:15:49;;;;;;;47.95;17.75;;;9.80;99.90;;;;;;5055039;28;20302;-47
2021/12/13 03:18:24;;;;;;;48.28;16.80;;;9.70;99.90;;;;;;5031660;28;20799;-48
2021/12/13 03:21:02;;;;;;;47.30;16.65;;;9.70;99.90;;;;;;5048695;28;20041;-47
2021/12/13 03:23:59;;;;;;;48.53;16.20;;;9.70;99.90;;;;;;5049953;28;20383;-46
2021/12/13 03:26:49;;;;;;;46.50;16.67;;;9.60;99.90;;;;;;5048269;28;20132;-46
2021/12/13 03:29:27;;;;;;;40.78;15.70;;;9.60;99.90;;;;;;5038325;28;20479;-46
2021/12/13 03:31:57;;;;;;;42.72;16.17;;;9.60;99.90;;;;;;5058492;28;20052;-46
2021/12/13 03:34:27;;;;;;;43.90;15.88;;;9.60;99.90;;;;;;5058522;28;20052;-46
2021/12/13 03:36:57;;;;;;;42.53;17.13;;;9.60;99.90;;;;;;5064909;28;20137;-47
2021/12/13 03:39:39;;;;;;;42.90;16.35;;;9.60;99.90;;;;;;5048126;28;20060;-46
2021/12/13 03:42:13;;;;;;;42.65;16.25;;;9.60;99.90;;;;;;5047874;28;20045;-46
2021/12/13 03:44:46;;;;;;;42.45;16.27;;;9.60;99.90;;;;;;5034783;28;20049;-46
2021/12/13 03:47:17;;;;;;;41.45;17.27;;;9.60;99.90;;;;;;5047899;28;20098;-46
2021/12/13 03:49:47;;;;;;;42.50;17.05;;;9.50;99.90;;;;;;5048031;28;20068;-46
2021/12/13 03:52:16;;;;;;;44.80;17.73;;;9.60;99.90;;;;;;5083174;28;20439;-45
2021/12/13 03:54:44;;;;;;;45.88;17.20;;;9.60;99.90;;;;;;5056856;28;20110;-47
2021/12/13 03:57:11;;;;;;;38.33;16.67;;;9.60;99.90;;;;;;5067088;28;20105;-46
2021/12/13 03:59:41;;;;;;;35.58;16.38;;;9.50;99.90;;;;;;5067740;28;20123;-46
2021/12/13 04:02:17;;;;;;;37.03;16.05;;;9.50;99.90;;;;;;5050218;28;20426;-48
2021/12/13 04:04:52;;;;;;;37.10;14.82;;;9.50;99.90;;;;;;5047830;28;20060;-46
2021/12/13 04:07:28;;;;;;;34.33;15.45;;;9.50;99.90;;;;;;5061598;28;20118;-46
2021/12/13 04:09:57;;;;;;;43.47;14.65;;;9.50;99.90;;;;;;5049079;28;20101;-45
2021/12/13 04:12:32;;;;;;;38.22;14.43;;;9.50;99.90;;;;;;5047751;28;20045;-46
2021/12/13 04:15:23;;;;;;;30.02;12.35;;;9.50;99.90;;;;;;5052484;28;20345;-48
2021/12/13 04:18:12;;;;;;;31.98;12.35;;;9.50;99.90;;;;;;5049417;28;20527;-46
2021/12/13 04:20:41;;;;;;;30.60;12.80;;;9.40;99.90;;;;;;5090291;28;20214;-47
2021/12/13 04:23:12;;;;;;;31.15;11.52;;;9.40;99.90;;;;;;5053761;28;20116;-46
2021/12/13 04:25:46;;;;;;;31.65;12.20;;;9.40;99.90;;;;;;5040359;28;20095;-46
2021/12/13 04:28:19;;;;;;;33.20;11.48;;;9.40;99.90;;;;;;5048678;28;20148;-46
2021/12/13 04:30:47;;;;;;;30.38;11.27;;;9.40;99.90;;;;;;5047174;28;20167;-45
2021/12/13 04:34:00;;;;;;;30.52;10.30;;;9.40;99.90;;;;;;5048397;28;20132;-45
2021/12/13 04:36:48;;;;;;;22.45;9.57;;;9.40;99.90;;;;;;5081652;28;20053;-46
2021/12/13 04:39:27;;;;;;;21.95;8.00;;;9.40;99.90;;;;;;5062527;28;20080;-46
2021/12/13 04:42:11;;;;;;;22.25;9.93;;;9.30;99.90;;;;;;5065942;28;20418;-47
2021/12/13 04:45:09;;;;;;;21.70;9.18;;;9.30;99.90;;;;;;5065622;28;20044;-46
2021/12/13 04:48:02;;;;;;;20.83;8.52;;;9.30;99.90;;;;;;5063655;28;20059;-46
2021/12/13 04:50:44;;;;;;;21.02;7.90;;;9.30;99.90;;;;;;5068234;28;20134;-45
2021/12/13 04:53:16;;;;;;;21.98;7.72;;;9.30;99.90;;;;;;5066861;28;20506;-46
2021/12/13 04:55:43;;;;;;;18.92;7.85;;;9.30;99.90;;;;;;5066533;28;20049;-45
2021/12/13 04:58:12;;;;;;;19.08;8.02;;;9.30;99.90;;;;;;5060250;28;20108;-47
2021/12/13 05:00:42;;;;;;;19.05;8.13;;;9.30;99.90;;;;;;5064915;28;20060;-46
2021/12/13 05:03:10;;;;;;;15.50;8.07;;;9.30;99.90;;;;;;5060940;28;20049;-46
2021/12/13 05:05:37;;;;;;;18.15;7.40;;;9.30;99.90;;;;;;5066247;28;20507;-45
2021/12/13 05:08:07;;;;;;;18.67;6.97;;;9.30;99.90;;;;;;5066805;28;20418;-45
2021/12/13 05:10:33;;;;;;;13.93;6.60;;;9.20;99.90;;;;;;5065618;28;20044;-46
2021/12/13 05:13:12;;;;;;;13.15;5.88;;;9.20;99.90;;;;;;5066023;28;20375;-46
2021/12/13 05:15:42;;;;;;;14.98;6.00;;;9.20;99.90;;;;;;5051741;28;20571;-45
2021/12/13 05:18:19;;;;;;;15.55;5.78;;;9.20;99.90;;;;;;5054147;28;20171;-47
2021/12/13 05:20:45;;;;;;;14.18;6.25;;;9.20;99.90;;;;;;5040593;28;20037;-46
2021/12/13 05:23:22;;;;;;;12.17;5.40;;;9.20;99.90;;;;;;5049390;28;20064;-46
2021/12/13 05:25:58;;;;;;;13.93;5.57;;;9.10;99.90;;;;;;5046676;28;20311;-46
2021/12/13 05:28:46;;;;;;;10.27;4.60;;;9.20;99.90;;;;;;5052180;28;20041;-46
2021/12/13 05:31:19;;;;;;;9.80;4.60;;;9.10;99.90;;;;;;5047958;28;20048;-47
2021/12/13 05:33:51;;;;;;;13.18;4.68;;;9.10;99.90;;;;;;5046341;28;20470;-46
2021/12/13 05:36:21;;;;;;;9.07;4.38;;;9.50;99.90;;;;;;5048783;28;20575;-46
2021/12/13 05:38:50;;;;;;;10.10;4.78;;;9.10;99.90;;;;;;5062693;28;20040;-46
2021/12/13 05:41:27;;;;;;;9.20;4.18;;;9.10;99.90;;;;;;5081297;28;20604;-45
2021/12/13 05:44:00;;;;;;;8.32;4.07;;;9.10;99.90;;;;;;5054613;28;20033;-46
2021/12/13 05:46:42;;;;;;;11.23;4.50;;;9.10;99.90;;;;;;5047959;28;20216;-46
2021/12/13 05:49:22;;;;;;;9.75;4.68;;;9.10;99.90;;;;;;5029546;28;20509;-45
2021/12/13 05:51:52;;;;;;;7.38;4.38;;;9.10;99.90;;;;;;5047674;28;20483;-46
2021/12/13 05:54:26;;;;;;;10.82;4.35;;;9.00;99.90;;;;;;5046498;28;20063;-46
2021/12/13 05:57:04;;;;;;;9.68;4.63;;;9.00;99.90;;;;;;5050128;28;20229;-46
2021/12/13 05:59:38;;;;;;;13.27;4.53;;;9.10;99.90;;;;;;5053905;28;20040;-47
2021/12/13 06:02:07;;;;;;;11.13;4.90;;;;;;;;;;5034041;28;20058;-45
2021/12/13 06:04:57;;;;;;;9.70;4.85;;;9.00;99.90;;;;;;5059204;28;20132;-47
2021/12/13 06:07:28;;;;;;;10.20;4.07;;;9.00;99.90;;;;;;5046141;28;20477;-45
2021/12/13 06:09:56;;;;;;;11.52;4.68;;;9.00;99.90;;;;;;5049717;28;20053;-46
2021/12/13 06:12:52;;;;;;;10.82;5.00;;;9.10;99.90;;;;;;5040947;28;20555;-45
2021/12/13 06:15:19;;;;;;;11.25;5.13;;;9.00;99.90;;;;;;5065705;28;20045;-47
2021/12/13 06:18:05;;;;;;;13.57;5.22;;;9.00;99.90;;;;;;5049984;28;20059;-46
2021/12/13 06:20:34;;;;;;;12.02;5.50;;;9.00;99.90;;;;;;5053036;28;20056;-45
2021/12/13 06:23:39;;;;;;;13.75;5.45;;;9.00;99.90;;;;;;5061177;28;20048;-45
2021/12/13 06:26:09;;;;;;;12.57;5.55;;;9.00;99.90;;;;;;5065335;28;20047;-45
2021/12/13 06:28:40;;;;;;;13.60;6.20;;;9.00;99.90;;;;;;5061387;28;20045;-46
2021/12/13 06:31:15;;;;;;;13.85;6.18;;;9.00;99.90;;;;;;5050839;28;20202;-45
2021/12/13 06:33:50;;;;;;;11.70;5.90;;;9.00;99.90;;;;;;5053319;28;20133;-45
2021/12/13 06:36:29;;;;;;;15.43;6.10;;;9.00;99.90;;;;;;5065172;28;20128;-46
2021/12/13 06:38:59;;;;;;;14.20;6.90;;;8.90;99.90;;;;;;5044914;28;20087;-46
2021/12/13 06:41:28;;;;;;;14.85;6.88;;;9.00;99.90;;;;;;5068519;28;20120;-45
2021/12/13 06:44:05;;;;;;;15.38;6.55;;;9.00;99.90;;;;;;5067093;28;20040;-45
2021/12/13 06:46:40;;;;;;;16.03;6.73;;;8.90;99.90;;;;;;5095057;28;20044;-45
2021/12/13 06:49:13;;;;;;;17.38;7.25;;;8.90;99.90;;;;;;5055957;28;20044;-45
2021/12/13 06:51:54;;;;;;;16.80;7.18;;;8.90;99.90;;;;;;5073674;28;20744;-46
2021/12/13 06:54:43;;;;;;;13.77;6.88;;;8.90;99.90;;;;;;5049353;28;20441;-46
2021/12/13 06:57:09;;;;;;;11.40;6.70;;;8.90;99.90;;;;;;5066666;28;20040;-47
2021/12/13 06:59:49;;;;;;;17.00;8.38;;;8.90;99.90;;;;;;5058971;28;20056;-44
2021/12/13 07:02:25;;;;;;;15.23;7.03;;;8.90;99.90;;;;;;5048990;28;20060;-46
2021/12/13 07:04:58;;;;;;;14.43;6.95;;;8.90;99.90;;;;;;5050679;28;20049;-45
2021/12/13 07:07:47;;;;;;;14.02;6.68;;;8.90;99.90;;;;;;5061136;28;20036;-45
2021/12/13 07:10:18;;;;;;;16.15;7.45;;;8.90;99.90;;;;;;5069449;28;20458;-45
2021/12/13 07:12:49;;;;;;;13.10;7.18;;;8.90;99.90;;;;;;5046216;28;20154;-48
2021/12/13 07:15:45;;;;;;;13.60;7.25;;;8.90;99.90;;;;;;5064959;28;20170;-44
2021/12/13 07:18:14;;;;;;;13.55;7.10;;;8.90;99.90;;;;;;5054827;28;20510;-45
2021/12/13 07:20:54;;;;;;;19.52;8.10;;;8.90;99.90;;;;;;5061385;28;20036;-46
2021/12/13 07:23:21;;;;;;;15.93;7.60;;;8.90;99.90;;;;;;5048665;28;20067;-45
2021/12/13 07:25:51;;;;;;;14.02;6.90;;;8.90;99.90;;;;;;5047933;28;20051;-45
2021/12/13 07:28:28;;;;;;;12.57;7.45;;;8.70;99.90;;;;;;5042266;28;20044;-45
2021/12/13 07:30:54;;;;;;;15.45;8.20;;;9.00;99.90;;;;;;5064171;28;20040;-45
2021/12/13 07:33:43;;;;;;;18.03;7.70;;;9.00;99.90;;;;;;5057558;28;20092;-45
2021/12/13 07:36:17;;;;;;;18.17;7.55;;;9.00;99.90;;;;;;5059075;28;20349;-45
2021/12/13 07:39:14;;;;;;;13.98;7.50;;;9.00;99.90;;;;;;5059648;28;20394;-45
2021/12/13 07:41:45;;;;;;;15.70;7.32;;;9.00;99.90;;;;;;5066395;28;20045;-45
2021/12/13 07:44:31;;;;;;;17.33;7.88;;;9.00;99.90;;;;;;5064369;28;20036;-45
2021/12/13 07:47:10;;;;;;;16.38;8.45;;;9.00;99.90;;;;;;5068216;28;20128;-46
2021/12/13 07:49:42;;;;;;;14.60;7.95;;;9.00;99.90;;;;;;5068429;28;20682;-47
2021/12/13 07:52:21;;;;;;;16.15;8.75;;;9.00;99.90;;;;;;5065807;28;20035;-45
2021/12/13 07:54:47;;;;;;;12.60;7.55;;;9.00;99.90;;;;;;5067196;28;20090;-45
2021/12/13 07:57:32;;;;;;;16.05;8.65;;;8.90;99.90;;;;;;5061021;28;20457;-44
2021/12/13 07:59:58;;;;;;;14.40;8.15;;;9.00;99.90;;;;;;5063827;28;20040;-46
2021/12/13 08:02:30;;;;;;;16.77;8.45;;;9.00;99.90;;;;;;5067835;28;20075;-44
2021/12/13 08:05:11;;;;;;;14.95;8.75;;;9.00;99.90;;;;;;5065959;28;20110;-45
2021/12/13 08:08:05;;;;;;;18.90;9.15;;;9.00;99.90;;;;;;5067581;28;20044;-44
2021/12/13 08:10:42;;;;;;;17.30;9.52;;;9.10;99.90;;;;;;5061149;28;20063;-46
2021/12/13 08:13:13;;;;;;;17.02;9.13;;;8.90;99.90;;;;;;5061152;28;20051;-45
2021/12/13 08:15:41;;;;;;;22.48;10.90;;;9.00;99.90;;;;;;5043198;28;20053;-45
2021/12/13 08:18:20;;;;;;;17.90;9.80;;;9.00;99.90;;;;;;5067754;28;20043;-45
2021/12/13 08:20:56;;;;;;;20.08;10.13;;;9.00;99.90;;;;;;5066103;28;20032;-45
2021/12/13 08:23:35;;;;;;;19.13;10.13;;;9.00;99.90;;;;;;5066189;28;20428;-45
2021/12/13 08:26:04;;;;;;;18.17;10.07;;;8.90;99.90;;;;;;5064222;28;20343;-46
2021/12/13 08:28:36;;;;;;;19.10;10.85;;;9.00;99.90;;;;;;5066163;28;20032;-46
2021/12/13 08:31:05;;;;;;;19.40;11.50;;;9.00;99.90;;;;;;5064209;28;20039;-45
2021/12/13 08:33:36;;;;;;;26.92;13.80;;;9.10;99.90;;;;;;5049849;28;20098;-47
2021/12/13 08:36:13;;;;;;;22.25;12.82;;;9.00;99.90;;;;;;5046823;28;20514;-46
2021/12/13 08:38:50;;;;;;;24.15;13.25;;;9.20;99.90;;;;;;5062603;28;20083;-44
2021/12/13 08:41:30;;;;;;;19.83;12.57;;;9.10;99.90;;;;;;5088490;28;20047;-45
2021/12/13 08:44:05;;;;;;;20.05;12.50;;;9.10;99.90;;;;;;5067798;28;20064;-46
2021/12/13 08:46:34;;;;;;;21.75;12.48;;;9.10;99.90;;;;;;5065301;28;20398;-45
2021/12/13 08:49:01;;;;;;;20.67;12.18;;;9.10;99.90;;;;;;5062194;28;20088;-45
2021/12/13 08:51:30;;;;;;;23.35;13.35;;;9.10;99.90;;;;;;5065909;28;20080;-46
2021/12/13 08:54:02;;;;;;;28.30;15.10;;;9.20;99.90;;;;;;5063755;28;20079;-45
2021/12/13 08:56:31;;;;;;;22.83;13.95;;;9.10;99.90;;;;;;5041872;28;20110;-44
2021/12/13 08:59:10;;;;;;;21.42;13.65;;;9.20;99.90;;;;;;5043499;28;20040;-45
2021/12/13 09:01:50;;;;;;;22.70;13.45;;;9.20;99.90;;;;;;5056176;28;20289;-46
2021/12/13 09:04:26;;;;;;;20.80;13.85;;;9.20;99.90;;;;;;5064045;28;20113;-46
2021/12/13 09:07:04;;;;;;;20.25;12.73;;;9.20;99.90;;;;;;5057128;28;20036;-47
2021/12/13 09:09:31;;;;;;;24.30;14.02;;;9.20;99.90;;;;;;5072590;28;20183;-47
2021/12/13 09:12:05;;;;;;;21.42;13.20;;;9.30;99.90;;;;;;5045680;28;20064;-46
2021/12/13 09:14:38;;;;;;;22.38;13.60;;;9.30;99.90;;;;;;5065422;28;20032;-47
2021/12/13 09:17:21;;;;;;;25.30;14.55;;;9.30;99.90;;;;;;5073263;28;20036;-44
2021/12/13 09:19:55;;;;;;;23.77;14.82;;;9.40;99.90;;;;;;5067636;28;20718;-46
2021/12/13 09:22:49;;;;;;;22.95;14.68;;;9.40;99.90;;;;;;5085393;28;20439;-45
2021/12/13 09:25:35;;;;;;;21.48;13.80;;;9.40;99.90;;;;;;5066535;28;20461;-45
2021/12/13 09:28:17;;;;;;;27.35;14.50;;;9.40;99.90;;;;;;5063557;28;20352;-44
2021/12/13 09:30:46;;;;;;;23.45;15.40;;;9.40;99.90;;;;;;5068388;28;20052;-46
2021/12/13 09:33:28;;;;;;;25.35;15.73;;;9.50;99.90;;;;;;5046969;28;20165;-45
2021/12/13 09:36:03;;;;;;;23.00;16.27;;;9.50;99.90;;;;;;5070745;28;20040;-47
2021/12/13 09:38:32;;;;;;;23.55;14.75;;;;;;;;;;5069900;28;20041;-45
2021/12/13 09:41:07;;;;;;;24.45;15.43;;;9.40;99.90;;;;;;5068551;28;20032;-44
2021/12/13 09:43:54;;;;;;;28.13;15.82;;;9.40;99.90;;;;;;5067775;28;20042;-45
2021/12/13 09:46:38;;;;;;;26.92;15.25;;;9.50;99.90;;;;;;5071316;28;20032;-46
2021/12/13 09:49:20;;;;;;;24.10;14.82;;;9.40;99.90;;;;;;5069390;28;20099;-44
2021/12/13 09:52:00;;;;;;;24.23;15.25;;;9.40;99.90;;;;;;5066059;28;20348;-45
2021/12/13 09:54:32;;;;;;;23.65;15.15;;;9.50;99.90;;;;;;5070140;28;20413;-45
2021/12/13 09:57:04;;;;;;;21.02;14.20;;;9.50;99.90;;;;;;5051383;28;20313;-45
2021/12/13 09:59:44;;;;;;;25.30;14.48;;;9.40;99.90;;;;;;5068633;28;20037;-45
2021/12/13 10:02:36;;;;;;;21.20;13.95;;;9.50;99.90;;;;;;5067118;28;20095;-45
2021/12/13 10:05:09;;;;;;;24.13;15.18;;;9.40;99.90;;;;;;5047017;28;20502;-46
2021/12/13 10:07:38;;;;;;;24.33;15.20;;;9.50;99.90;;;;;;5069019;28;20542;-45
2021/12/13 10:10:32;;;;;;;20.95;15.25;;;9.50;99.90;;;;;;5063150;28;20127;-44
2021/12/13 10:13:02;;;;;;;24.13;14.73;;;9.50;99.90;;;;;;5068326;28;20076;-45
2021/12/13 10:15:36;;;;;;;24.92;14.25;;;9.50;99.90;;;;;;5058892;28;20040;-44
2021/12/13 10:18:08;;;;;;;21.25;12.95;;;9.50;99.90;;;;;;5061947;28;20048;-45
2021/12/13 10:20:38;;;;;;;22.75;13.85;;;9.60;99.90;;;;;;5067459;28;20072;-45
2021/12/13 10:23:12;;;;;;;22.88;13.32;;;9.60;99.90;;;;;;5067958;28;20444;-45
2021/12/13 10:25:44;;;;;;;23.98;14.00;;;9.50;99.90;;;;;;5065998;28;20382;-46
2021/12/13 10:28:15;;;;;;;18.02;12.75;;;9.50;99.90;;;;;;5062960;28;20496;-45
2021/12/13 10:30:52;;;;;;;20.13;12.32;;;9.50;99.90;;;;;;5062501;28;20550;-45
2021/12/13 10:33:22;;;;;;;17.27;11.98;;;9.50;99.90;;;;;;5063482;28;20445;-45
2021/12/13 10:35:50;;;;;;;19.83;11.90;;;9.50;99.90;;;;;;5059709;28;20074;-47
2021/12/13 10:38:50;;;;;;;18.77;11.70;;;9.50;99.90;;;;;;5066267;28;20449;-47
2021/12/13 10:41:28;;;;;;;19.38;11.80;;;9.60;99.90;;;;;;5059899;28;20170;-46
2021/12/13 10:43:59;;;;;;;17.23;11.68;;;9.60;99.90;;;;;;5046510;28;20528;-46
2021/12/13 10:46:29;;;;;;;17.88;11.60;;;9.70;99.90;;;;;;5092039;28;20045;-47
2021/12/13 10:49:10;;;;;;;19.00;11.45;;;9.70;99.90;;;;;;5065629;28;20059;-45
2021/12/13 10:51:40;;;;;;;19.77;11.98;;;9.70;99.90;;;;;;5066092;28;20567;-45
2021/12/13 10:54:19;;;;;;;18.58;11.02;;;9.80;99.90;;;;;;5061998;28;20510;-45
2021/12/13 10:56:57;;;;;;;15.63;11.52;;;9.70;99.90;;;;;;5065020;28;20099;-44
2021/12/13 10:59:27;;;;;;;19.52;11.80;;;9.80;99.90;;;;;;5096703;28;20220;-46
2021/12/13 11:01:56;;;;;;;16.38;11.32;;;9.80;99.90;;;;;;5062999;28;20056;-47
2021/12/13 11:04:34;;;;;;;16.33;10.38;;;9.80;99.90;;;;;;5065099;28;20052;-44
2021/12/13 11:07:03;;;;;;;17.88;11.15;;;9.80;99.90;;;;;;5065178;28;20037;-46
2021/12/13 11:09:29;;;;;;;16.45;10.13;;;9.80;99.90;;;;;;5066642;28;20282;-47
2021/12/13 11:12:31;;;;;;;18.58;11.02;;;9.80;99.90;;;;;;5059140;28;20052;-45
2021/12/13 11:15:00;;;;;;;18.55;11.20;;;9.80;99.90;;;;;;5030041;28;20052;-45
2021/12/13 11:17:29;;;;;;;19.60;11.13;;;9.80;99.90;;;;;;5064187;28;20624;-45
2021/12/13 11:20:00;;;;;;;19.65;11.02;;;9.80;99.90;;;;;;5059904;28;20501;-45
2021/12/13 11:22:31;;;;;;;18.90;11.25;;;9.90;99.90;;;;;;5061332;28;20050;-45
2021/12/13 11:25:09;;;;;;;19.15;11.93;;;9.90;99.90;;;;;;5070064;28;20044;-45
2021/12/13 11:27:35;;;;;;;;;;;9.90;99.90;;;;;;5062440;28;20048;-46
2021/12/13 11:30:06;;;;;;;16.67;11.63;;;9.80;99.90;;;;;;5063654;28;19925;-46
2021/12/13 11:32:38;;;;;;;18.67;11.05;;;9.80;99.90;;;;;;5058781;28;20048;-45
2021/12/13 11:35:06;;;;;;;21.38;11.93;;;9.80;99.90;;;;;;5040625;28;20051;-49
2021/12/13 11:37:59;;;;;;;22.73;11.75;;;9.90;99.90;;;;;;5068047;28;20260;-45
2021/12/13 11:40:40;;;;;;;20.40;12.15;;;9.90;99.90;;;;;;5063351;28;20375;-47
2021/12/13 11:43:44;;;;;;;23.25;11.60;;;9.90;99.90;;;;;;5064153;28;20068;-46
2021/12/13 11:46:48;;;;;;;17.35;11.00;;;9.90;99.90;;;;;;5041366;28;20045;-45
2021/12/13 11:49:42;;;;;;;18.33;11.15;;;9.90;99.90;;;;;;5036641;28;20074;-45
2021/12/13 11:52:08;;;;;;;18.10;11.40;;;9.90;99.90;;;;;;5061969;28;20040;-46
2021/12/13 11:55:03;;;;;;;22.88;12.57;;;9.90;99.90;;;;;;5062448;28;20060;-46
2021/12/13 11:58:06;;;;;;;22.00;12.18;;;9.90;99.90;;;;;;5062453;28;20054;-45
2021/12/13 12:01:04;;;;;;;18.00;12.05;;;9.90;99.90;;;;;;5060106;28;20052;-48
2021/12/13 12:04:03;;;;;;;21.20;11.90;;;9.90;99.90;;;;;;5061519;28;20060;-48
2021/12/13 12:07:07;;;;;;;19.23;11.63;;;9.90;99.90;;;;;;5068317;28;20056;-45
2021/12/13 12:10:08;;;;;;;22.35;13.00;;;9.90;99.90;;;;;;5057355;28;20075;-46
2021/12/13 12:12:53;;;;;;;19.42;11.63;;;;;;;;;;5056990;28;20405;-46
2021/12/13 12:15:20;;;;;;;20.52;11.35;;;;;;;;;;5065421;28;20040;-45
2021/12/13 12:17:46;;;;;;;19.30;11.38;;;10.30;99.90;;;;;;5062319;28;20097;-45
2021/12/13 12:20:20;;;;;;;18.75;12.18;;;10.20;99.90;;;;;;5063380;28;20052;-45
2021/12/13 12:22:54;;;;;;;16.27;11.63;;;10.20;99.90;;;;;;5050210;28;20044;-46
2021/12/13 12:25:24;;;;;;;18.60;11.82;;;10.20;99.90;;;;;;5083423;28;20498;-44
2021/12/13 12:27:58;;;;;;;19.55;11.50;;;10.20;99.90;;;;;;5058197;28;20048;-46
2021/12/13 12:30:34;;;;;;;21.20;11.65;;;10.20;99.90;;;;;;5067003;28;20502;-46
2021/12/13 12:33:06;;;;;;;19.35;11.43;;;10.20;99.90;;;;;;5067190;28;20040;-45
2021/12/13 12:35:42;;;;;;;20.83;12.30;;;10.10;99.90;;;;;;5065252;28;20040;-46
2021/12/13 12:38:21;;;;;;;26.90;11.55;;;10.10;99.90;;;;;;5062355;28;20044;-44
2021/12/13 12:40:53;;;;;;;19.38;12.55;;;10.10;99.90;;;;;;5060723;28;20372;-45
2021/12/13 12:43:23;;;;;;;20.70;13.23;;;10.10;99.90;;;;;;5092751;28;20044;-46
2021/12/13 12:45:51;;;;;;;20.80;12.95;;;10.10;99.90;;;;;;5067090;28;20040;-45
2021/12/13 12:48:40;;;;;;;22.10;13.48;;;10.10;99.90;;;;;;5068809;28;20052;-45
2021/12/13 12:51:13;;;;;;;23.50;13.43;;;10.10;99.90;;;;;;5061542;28;20124;-47
2021/12/13 12:53:55;;;;;;;22.88;12.52;;;10.10;99.90;;;;;;5066871;28;20474;-46
2021/12/13 12:56:32;;;;;;;21.45;13.07;;;10.10;99.90;;;;;;5066935;28;20466;-45
2021/12/13 12:59:04;;;;;;;21.80;12.55;;;10.10;99.90;;;;;;5067287;28;20036;-45
2021/12/13 13:01:48;;;;;;;26.10;13.65;;;10.10;99.90;;;;;;5066941;28;20044;-49
2021/12/13 13:04:21;;;;;;;19.10;12.13;;;10.10;99.90;;;;;;5053602;28;20048;-45
2021/12/13 13:07:00;;;;;;;21.02;12.70;;;10.10;99.90;;;;;;5049808;28;20040;-48
2021/12/13 13:09:37;;;;;;;23.88;12.60;;;10.00;99.90;;;;;;5044198;28;20093;-45
2021/12/13 13:12:03;;;;;;;17.65;11.73;;;10.00;99.90;;;;;;5064501;28;20087;-45
2021/12/13 13:14:30;;;;;;;21.20;11.98;;;10.00;99.90;;;;;;5065849;28;20051;-47
2021/12/13 13:17:04;;;;;;;22.50;12.98;;;10.00;99.90;;;;;;5048412;28;20044;-46
2021/12/13 13:19:42;;;;;;;21.73;12.80;;;10.00;99.90;;;;;;5067863;28;20041;-45
2021/12/13 13:22:29;;;;;;;23.77;12.57;;;10.00;99.90;;;;;;5062199;28;20079;-46
2021/12/13 13:25:31;;;;;;;21.70;12.60;;;10.00;99.90;;;;;;5049278;28;20472;-47
2021/12/13 13:27:59;;;;;;;22.33;12.95;;;10.00;99.90;;;;;;5056182;28;20139;-46
2021/12/13 13:30:57;;;;;;;20.70;12.98;;;10.00;99.90;;;;;;5061901;28;20044;-47
2021/12/13 13:33:30;;;;;;;22.30;13.13;;;10.00;99.90;;;;;;5053869;28;20056;-45